createdAt,value
2018-12-13T00:01:19.554Z,90.40
2018-12-13T00:03:46.993Z,90.60
2018-12-13T00:06:14.460Z,90.80
2018-12-13T00:08:41.906Z,91.10
2018-12-13T00:11:09.366Z,91.30
2018-12-13T00:13:36.819Z,91.50
2018-12-13T00:33:16.882Z,92.10
2018-12-13T00:35:44.306Z,91.80
2018-12-13T00:38:11.739Z,91.90
2018-12-13T00:40:39.339Z,91.80
2018-12-13T00:43:06.776Z,91.70
2018-12-13T00:45:34.255Z,91.80
2018-12-13T00:48:01.713Z,92.20
2018-12-13T00:50:29.135Z,92.30
2018-12-13T00:52:56.546Z,92.60
2018-12-13T00:55:24.004Z,92.80
2018-12-13T00:57:51.441Z,93.00
2018-12-13T01:00:19.100Z,93.10
2018-12-13T01:02:46.556Z,93.10
2018-12-13T01:05:14.012Z,93.20
2018-12-13T01:07:41.572Z,93.10
2018-12-13T01:10:09.051Z,93.20
2018-12-13T01:12:36.556Z,93.30
2018-12-13T01:15:04.864Z,93.20
2018-12-13T01:17:32.328Z,93.10
2018-12-13T01:19:59.887Z,93.00
2018-12-13T01:22:27.547Z,93.20
2018-12-13T01:24:55.082Z,93.50
2018-12-13T01:27:22.666Z,93.40
2018-12-13T01:29:50.122Z,93.50
2018-12-13T01:32:17.576Z,93.60
2018-12-13T01:34:45.021Z,93.90
2018-12-13T01:37:12.491Z,94.00
2018-12-13T01:39:39.944Z,94.10
2018-12-13T01:42:07.403Z,94.20
2018-12-13T01:44:35.055Z,94.50
2018-12-13T01:47:02.529Z,94.80
2018-12-13T01:49:29.976Z,94.70
2018-12-13T01:51:57.532Z,94.70
2018-12-13T01:54:25.115Z,94.80
2018-12-13T01:56:52.748Z,94.90
2018-12-13T01:59:20.220Z,95.00
2018-12-13T02:01:47.775Z,95.10
2018-12-13T02:04:15.198Z,95.40
2018-12-13T02:06:42.799Z,95.40
2018-12-13T02:09:10.222Z,95.60
2018-12-13T02:11:37.674Z,95.60
2018-12-13T02:14:05.167Z,95.70
2018-12-13T02:16:32.624Z,95.80
2018-12-13T02:19:00.077Z,95.80
2018-12-13T02:21:27.547Z,95.90
2018-12-13T02:23:55.066Z,95.90
2018-12-13T02:26:22.505Z,96.20
2018-12-13T02:28:50.102Z,96.10
2018-12-13T02:31:17.601Z,96.30
2018-12-13T02:33:45.129Z,96.20
2018-12-13T02:36:12.788Z,96.10
2018-12-13T02:38:40.217Z,96.20
2018-12-13T02:41:07.660Z,96.20
2018-12-13T02:43:35.374Z,96.20
2018-12-13T02:46:03.745Z,96.10
2018-12-13T02:48:31.206Z,96.10
2018-12-13T02:50:58.656Z,96.30
2018-12-13T02:53:26.112Z,96.40
2018-12-13T02:55:53.568Z,96.60
2018-12-13T02:58:21.044Z,96.60
2018-12-13T03:00:48.473Z,96.60
2018-12-13T03:03:15.898Z,96.50
2018-12-13T03:05:43.413Z,96.60
2018-12-13T03:08:10.968Z,96.80
2018-12-13T03:10:38.416Z,96.80
2018-12-13T03:13:05.983Z,96.90
2018-12-13T03:15:33.438Z,96.90
2018-12-13T03:18:00.897Z,96.90
2018-12-13T03:20:28.455Z,96.90
2018-12-13T03:22:56.005Z,96.90
2018-12-13T03:25:23.465Z,96.90
2018-12-13T03:27:51.021Z,96.90
2018-12-13T03:30:18.505Z,96.90
2018-12-13T03:32:46.023Z,96.80
2018-12-13T03:35:13.477Z,96.90
2018-12-13T03:37:40.913Z,97.10
2018-12-13T03:40:08.521Z,97.10
2018-12-13T03:42:35.959Z,97.00
2018-12-13T03:45:03.634Z,97.30
2018-12-13T03:47:31.086Z,97.20
2018-12-13T03:49:58.556Z,97.10
2018-12-13T03:52:26.001Z,97.20
2018-12-13T03:54:53.566Z,97.30
2018-12-13T03:57:21.022Z,97.30
2018-12-13T03:59:48.590Z,97.40
2018-12-13T04:02:16.238Z,97.30
2018-12-13T04:04:43.793Z,97.40
2018-12-13T04:07:11.278Z,97.40
2018-12-13T04:09:38.922Z,97.50
2018-12-13T04:12:06.463Z,97.60
2018-12-13T04:14:33.891Z,97.90
2018-12-13T04:17:01.448Z,97.90
2018-12-13T04:19:28.961Z,97.80
2018-12-13T04:21:58.313Z,97.90
2018-12-13T04:24:25.750Z,97.80
2018-12-13T04:26:53.204Z,97.90
2018-12-13T04:29:20.826Z,97.90
2018-12-13T04:31:48.261Z,97.90
2018-12-13T04:34:15.810Z,97.90
2018-12-13T04:36:43.238Z,97.90
2018-12-13T04:39:10.771Z,98.00
2018-12-13T04:41:38.273Z,97.90
2018-12-13T04:44:05.777Z,97.80
2018-12-13T04:46:33.337Z,97.80
2018-12-13T04:49:00.786Z,97.80
2018-12-13T04:51:28.354Z,97.90
2018-12-13T04:53:55.823Z,97.90
2018-12-13T04:56:23.313Z,97.90
2018-12-13T04:58:50.826Z,97.80
2018-12-13T05:01:18.580Z,97.80
2018-12-13T05:03:46.006Z,98.00
2018-12-13T05:06:13.507Z,98.10
2018-12-13T05:08:41.193Z,98.30
2018-12-13T05:11:08.726Z,98.30
2018-12-13T05:13:36.204Z,98.20
2018-12-13T05:16:03.981Z,98.10
2018-12-13T05:18:31.497Z,98.10
2018-12-13T05:20:58.989Z,98.20
2018-12-13T05:23:26.613Z,98.20
2018-12-13T05:25:54.076Z,98.30
2018-12-13T05:28:21.533Z,98.20
2018-12-13T05:30:48.993Z,98.20
2018-12-13T05:33:16.417Z,98.20
2018-12-13T05:35:43.969Z,98.20
2018-12-13T05:38:11.477Z,98.20
2018-12-13T05:40:39.025Z,98.20
2018-12-13T05:43:06.482Z,98.30
2018-12-13T05:45:33.922Z,98.40
2018-12-13T05:48:01.345Z,98.30
2018-12-13T05:50:28.853Z,98.30
2018-12-13T05:52:56.410Z,98.20
2018-12-13T05:55:23.870Z,98.10
2018-12-13T05:57:51.329Z,98.20
2018-12-13T06:00:19.037Z,98.30
2018-12-13T06:02:46.498Z,98.10
2018-12-13T06:05:13.949Z,98.10
2018-12-13T06:07:41.461Z,98.10
2018-12-13T06:10:08.890Z,98.10
2018-12-13T06:12:36.316Z,98.20
2018-12-13T06:15:04.819Z,98.30
2018-12-13T06:17:32.469Z,98.30
2018-12-13T06:20:00.286Z,98.40
2018-12-13T06:22:27.949Z,98.50
2018-12-13T06:24:55.369Z,98.30
2018-12-13T06:27:22.806Z,98.10
2018-12-13T06:29:50.317Z,98.10
2018-12-13T06:32:17.769Z,98.10
2018-12-13T06:34:45.230Z,98.10
2018-12-13T06:37:12.683Z,98.10
2018-12-13T06:39:40.441Z,98.10
2018-12-13T06:42:07.891Z,98.20
2018-12-13T06:44:35.361Z,98.20
2018-12-13T06:47:02.846Z,98.30
2018-12-13T06:49:30.263Z,98.20
2018-12-13T06:51:57.720Z,98.30
2018-12-13T06:54:25.168Z,98.10
2018-12-13T06:56:52.641Z,97.90
2018-12-13T06:59:20.101Z,97.90
2018-12-13T07:01:47.523Z,98.00
2018-12-13T07:04:15.037Z,97.80
2018-12-13T07:06:43.442Z,97.30
2018-12-13T07:09:10.872Z,97.20
2018-12-13T07:11:38.413Z,96.50
2018-12-13T07:14:06.494Z,96.20
2018-12-13T07:16:34.130Z,96.20
2018-12-13T07:19:01.698Z,95.90
2018-12-13T07:21:29.256Z,95.50
2018-12-13T07:23:56.682Z,95.00
2018-12-13T07:26:24.218Z,94.80
2018-12-13T07:28:51.749Z,94.40
2018-12-13T07:31:19.197Z,94.10
2018-12-13T07:33:46.805Z,93.80
2018-12-13T07:36:14.262Z,93.60
2018-12-13T07:38:41.746Z,93.60
2018-12-13T07:41:09.320Z,93.60
2018-12-13T07:43:36.736Z,93.30
2018-12-13T07:46:04.229Z,93.10
2018-12-13T07:48:31.706Z,93.20
2018-12-13T07:50:59.125Z,92.90
2018-12-13T07:53:26.633Z,92.70
2018-12-13T07:55:54.064Z,92.60
2018-12-13T07:58:21.526Z,92.50
2018-12-13T08:00:49.076Z,92.40
2018-12-13T08:03:16.502Z,92.10
2018-12-13T08:05:45.101Z,92.00
2018-12-13T08:08:12.880Z,91.70
2018-12-13T08:10:40.352Z,91.60
2018-12-13T08:13:07.768Z,91.10
2018-12-13T08:15:35.362Z,90.80
2018-12-13T08:18:02.882Z,90.80
2018-12-13T08:20:30.350Z,90.80
2018-12-13T08:22:57.917Z,90.70
2018-12-13T08:25:25.358Z,90.70
2018-12-13T08:27:52.849Z,90.70
2018-12-13T08:30:20.413Z,90.30
2018-12-13T08:32:47.874Z,90.20
2018-12-13T08:35:15.424Z,89.90
2018-12-13T08:37:42.902Z,89.80
2018-12-13T08:40:10.456Z,89.50
2018-12-13T08:42:38.004Z,90.00
2018-12-13T08:45:06.513Z,88.80
2018-12-13T08:47:33.954Z,88.90
2018-12-13T08:50:01.500Z,89.20
2018-12-13T08:52:28.944Z,88.70
2018-12-13T08:54:56.478Z,88.90
2018-12-13T08:57:24.133Z,88.80
2018-12-13T08:59:51.573Z,88.30
2018-12-13T09:02:19.098Z,87.50
2018-12-13T09:04:46.658Z,87.40
2018-12-13T09:07:14.088Z,87.80
2018-12-13T09:09:41.509Z,88.00
2018-12-13T09:12:08.974Z,87.60
2018-12-13T09:14:36.442Z,86.90
2018-12-13T09:17:03.933Z,86.80
2018-12-13T09:19:31.497Z,86.90
2018-12-13T09:21:58.934Z,86.00
2018-12-13T09:24:26.409Z,85.80
2018-12-13T09:26:53.855Z,85.60
2018-12-13T09:29:21.419Z,84.90
2018-12-13T09:31:48.881Z,83.70
2018-12-13T09:34:16.338Z,83.70
2018-12-13T09:36:43.816Z,84.40
2018-12-13T09:39:11.258Z,83.20
2018-12-13T09:41:38.706Z,82.90
2018-12-13T09:44:08.195Z,81.60
2018-12-13T09:46:35.660Z,81.00
2018-12-13T09:49:03.135Z,80.20
2018-12-13T09:51:30.617Z,79.00
2018-12-13T09:53:58.044Z,78.40
2018-12-13T09:56:25.596Z,78.20
2018-12-13T09:58:53.360Z,77.70
2018-12-13T10:01:20.824Z,77.20
2018-12-13T10:03:48.260Z,77.40
2018-12-13T10:06:15.711Z,76.30
2018-12-13T10:08:46.313Z,76.10
2018-12-13T10:11:12.590Z,76.00
2018-12-13T10:13:40.059Z,75.90
2018-12-13T10:16:07.626Z,74.70
2018-12-13T10:18:35.176Z,73.60
2018-12-13T10:21:02.621Z,73.10
2018-12-13T10:23:30.044Z,72.60
2018-12-13T10:25:59.666Z,70.90
2018-12-13T10:28:27.049Z,70.70
2018-12-13T10:30:54.480Z,70.60
2018-12-13T10:33:22.062Z,70.60
2018-12-13T10:35:49.622Z,69.90
2018-12-13T10:38:17.164Z,69.80
2018-12-13T10:40:44.842Z,69.00
2018-12-13T10:43:12.272Z,68.60
2018-12-13T10:45:39.857Z,68.30
2018-12-13T10:48:07.513Z,67.70
2018-12-13T10:50:35.189Z,66.30
2018-12-13T10:53:02.608Z,67.70
2018-12-13T10:55:30.416Z,67.70
2018-12-13T10:57:57.932Z,68.40
2018-12-13T11:00:30.949Z,67.40
2018-12-13T11:06:12.348Z,66.40
2018-12-13T11:08:39.797Z,66.20
2018-12-13T11:11:07.356Z,65.60
2018-12-13T11:13:34.822Z,65.80
2018-12-13T11:16:02.297Z,67.10
2018-12-13T11:18:29.713Z,66.00
2018-12-13T11:20:57.173Z,66.40
2018-12-13T11:23:24.753Z,65.30
2018-12-13T11:25:52.203Z,65.20
2018-12-13T11:28:29.397Z,64.80
2018-12-13T11:30:56.948Z,63.90
2018-12-13T11:33:24.482Z,63.20
2018-12-13T11:35:52.154Z,62.90
2018-12-13T11:38:19.688Z,62.80
2018-12-13T11:40:47.186Z,61.80
2018-12-13T11:43:14.745Z,61.70
2018-12-13T11:45:42.238Z,61.50
2018-12-13T11:48:09.718Z,61.00
2018-12-13T11:50:37.329Z,61.20
2018-12-13T11:53:04.798Z,59.40
2018-12-13T11:55:33.489Z,59.40
2018-12-13T11:58:01.404Z,58.70
2018-12-13T12:00:28.891Z,58.30
2018-12-13T12:02:56.452Z,59.00
2018-12-13T12:05:24.111Z,58.00
2018-12-13T12:07:51.637Z,58.00
2018-12-13T12:10:19.061Z,58.50
2018-12-13T12:12:46.580Z,58.20
2018-12-13T12:15:14.048Z,57.90
2018-12-13T12:17:41.705Z,56.50
2018-12-13T12:20:09.197Z,56.00
2018-12-13T12:22:36.717Z,56.10
2018-12-13T12:25:05.490Z,56.10
2018-12-13T12:27:32.929Z,54.30
2018-12-13T12:30:00.417Z,54.40
2018-12-13T12:32:28.087Z,54.50
2018-12-13T12:34:55.512Z,54.40
2018-12-13T12:37:22.974Z,54.60
2018-12-13T12:39:50.480Z,53.80
2018-12-13T12:42:17.911Z,53.60
2018-12-13T12:44:45.477Z,52.60
2018-12-13T12:47:12.929Z,52.50
2018-12-13T12:49:40.357Z,51.00
2018-12-13T12:52:07.794Z,51.30
2018-12-13T12:54:35.408Z,51.10
2018-12-13T12:57:02.856Z,51.20
2018-12-13T12:59:30.413Z,51.10
2018-12-13T13:01:57.898Z,50.40
2018-12-13T13:04:25.334Z,50.40
2018-12-13T13:06:52.762Z,51.20
2018-12-13T13:09:24.996Z,51.40
2018-12-13T13:11:49.757Z,50.70
2018-12-13T13:14:17.251Z,52.50
2018-12-13T13:16:44.738Z,52.70
2018-12-13T13:19:12.184Z,52.60
2018-12-13T13:21:39.609Z,54.90
2018-12-13T13:24:07.200Z,55.60
2018-12-13T13:26:34.700Z,56.90
2018-12-13T13:29:02.127Z,57.70
2018-12-13T13:31:29.663Z,58.10
2018-12-13T13:33:57.080Z,57.00
2018-12-13T13:36:24.563Z,55.80
2018-12-13T13:38:52.119Z,55.30
2018-12-13T13:41:19.553Z,55.60
2018-12-13T13:43:47.221Z,57.40
2018-12-13T13:46:14.753Z,57.50
2018-12-13T13:48:42.209Z,58.40
2018-12-13T13:51:09.679Z,58.90
2018-12-13T13:53:37.220Z,59.80
2018-12-13T13:56:04.696Z,60.30
2018-12-13T13:58:32.139Z,61.20
2018-12-13T14:00:59.614Z,60.30
2018-12-13T14:03:27.064Z,60.80
2018-12-13T14:05:54.542Z,61.40
2018-12-13T14:08:22.071Z,61.30
2018-12-13T14:10:49.496Z,61.90
2018-12-13T14:13:16.990Z,63.20
2018-12-13T14:15:44.544Z,62.50
2018-12-13T14:18:11.972Z,62.20
2018-12-13T14:20:39.434Z,62.30
2018-12-13T14:23:06.997Z,63.00
2018-12-13T14:25:34.480Z,62.80
2018-12-13T14:28:01.910Z,63.10
2018-12-13T14:30:29.439Z,63.40
2018-12-13T14:32:56.944Z,64.60
2018-12-13T14:35:24.512Z,64.70
2018-12-13T14:37:52.177Z,64.20
2018-12-13T14:40:19.628Z,64.50
2018-12-13T14:42:47.172Z,64.20
2018-12-13T14:45:14.634Z,63.80
2018-12-13T14:47:42.285Z,64.20
2018-12-13T14:50:09.781Z,63.90
2018-12-13T14:52:37.237Z,63.40
2018-12-13T14:55:04.781Z,62.70
2018-12-13T14:57:32.319Z,62.80
2018-12-13T14:59:59.805Z,63.10
2018-12-13T15:02:27.457Z,63.60
2018-12-13T15:04:55.512Z,63.40
2018-12-13T15:07:22.960Z,63.80
2018-12-13T15:09:50.985Z,64.10
2018-12-13T15:12:18.934Z,64.40
2018-12-13T15:14:46.353Z,65.00
2018-12-13T15:17:13.941Z,65.60
2018-12-13T15:19:41.401Z,66.60
2018-12-13T15:22:08.834Z,67.20
2018-12-13T15:24:36.341Z,67.90
2018-12-13T15:27:03.817Z,68.80
2018-12-13T15:29:31.266Z,70.20
2018-12-13T15:31:59.417Z,69.40
2018-12-13T15:34:27.317Z,69.70
2018-12-13T15:36:54.825Z,69.90
2018-12-13T15:39:22.547Z,70.50
2018-12-13T15:41:50.048Z,70.30
2018-12-13T15:44:17.505Z,70.30
2018-12-13T15:46:45.159Z,70.70
2018-12-13T15:49:12.662Z,71.40
2018-12-13T15:51:40.181Z,72.10
2018-12-13T15:54:07.641Z,73.10
2018-12-13T15:56:35.202Z,71.70
2018-12-13T15:59:02.632Z,70.50
2018-12-13T16:01:30.053Z,70.40
2018-12-13T16:03:57.769Z,70.20
2018-12-13T16:06:25.222Z,70.00
2018-12-13T16:08:52.664Z,69.80
2018-12-13T16:11:20.246Z,69.80
2018-12-13T16:13:47.700Z,70.50
2018-12-13T16:16:15.147Z,70.10
2018-12-13T16:18:42.725Z,70.10
2018-12-13T16:21:10.584Z,70.50
2018-12-13T16:23:38.033Z,71.20
2018-12-13T16:26:05.702Z,71.60
2018-12-13T16:28:33.161Z,72.00
2018-12-13T16:31:00.610Z,72.20
2018-12-13T16:33:28.127Z,72.70
2018-12-13T16:35:55.643Z,72.80
2018-12-13T16:38:23.198Z,73.00
2018-12-13T16:40:50.956Z,73.10
2018-12-13T16:43:18.377Z,73.00
2018-12-13T16:45:45.832Z,73.40
2018-12-13T16:48:13.639Z,73.70
2018-12-13T16:50:41.105Z,74.60
2018-12-13T16:53:08.731Z,71.70
2018-12-13T16:55:36.324Z,72.00
2018-12-13T16:58:03.788Z,71.50
2018-12-13T17:00:31.312Z,72.00
2018-12-13T17:02:58.949Z,73.20
2018-12-13T17:05:26.458Z,73.50
2018-12-13T17:07:53.996Z,72.80
2018-12-13T17:10:21.500Z,73.40
2018-12-13T17:12:48.965Z,71.70
2018-12-13T17:15:16.395Z,72.20
2018-12-13T17:17:44.039Z,70.70
2018-12-13T17:20:11.722Z,70.70
2018-12-13T17:22:39.149Z,71.80
2018-12-13T17:25:06.916Z,71.80
2018-12-13T17:27:34.383Z,72.60
2018-12-13T17:30:01.946Z,72.90
2018-12-13T17:32:29.454Z,73.30
2018-12-13T17:34:56.958Z,74.40
2018-12-13T17:37:24.424Z,75.00
2018-12-13T17:39:52.070Z,76.10
2018-12-13T17:42:19.653Z,76.60
2018-12-13T17:44:47.193Z,76.60
2018-12-13T17:47:14.809Z,76.70
2018-12-13T17:49:42.409Z,78.90
2018-12-13T17:52:09.974Z,78.30
2018-12-13T17:54:37.534Z,78.00
2018-12-13T17:57:05.145Z,77.50
2018-12-13T17:59:32.676Z,76.50
2018-12-13T18:02:00.419Z,76.90
2018-12-13T18:04:27.953Z,76.20
2018-12-13T18:06:55.416Z,76.50
2018-12-13T18:09:22.917Z,76.80
2018-12-13T18:11:50.360Z,77.20
2018-12-13T18:14:17.809Z,77.40
2018-12-13T18:16:45.363Z,77.40
2018-12-13T18:19:12.784Z,77.20
2018-12-13T18:21:40.289Z,76.70
2018-12-13T18:24:07.829Z,76.50
2018-12-13T18:26:35.318Z,76.20
2018-12-13T18:29:02.951Z,75.40
2018-12-13T18:31:30.665Z,75.30
2018-12-13T18:33:58.164Z,75.40
2018-12-13T18:36:25.753Z,75.90
2018-12-13T18:38:53.283Z,76.40
2018-12-13T18:41:20.741Z,76.50
2018-12-13T18:43:48.303Z,76.30
2018-12-13T18:46:15.965Z,76.00
2018-12-13T18:48:43.455Z,76.00
2018-12-13T18:51:10.989Z,75.30
2018-12-13T18:53:38.544Z,75.60
2018-12-13T18:56:06.209Z,74.80
2018-12-13T18:58:33.638Z,74.70
2018-12-13T19:01:01.105Z,75.40
2018-12-13T19:03:28.607Z,75.40
2018-12-13T19:05:56.057Z,75.30
2018-12-13T19:08:23.571Z,75.00
2018-12-13T19:10:51.343Z,74.30
2018-12-13T19:13:18.872Z,73.80
2018-12-13T19:15:46.373Z,72.70
2018-12-13T19:18:13.825Z,71.90
2018-12-13T19:20:41.393Z,72.00
2018-12-13T19:23:09.131Z,71.90
2018-12-13T19:25:36.569Z,72.00
2018-12-13T19:28:04.013Z,72.50
2018-12-13T19:30:31.541Z,72.10
2018-12-13T19:32:59.096Z,72.60
2018-12-13T19:35:26.751Z,71.90
2018-12-13T19:37:54.377Z,72.50
2018-12-13T19:40:21.882Z,72.20
2018-12-13T19:42:49.302Z,72.20
2018-12-13T19:45:16.977Z,72.60
2018-12-13T19:47:44.437Z,72.30
2018-12-13T19:50:12.011Z,72.20
2018-12-13T19:52:39.653Z,72.30
2018-12-13T19:55:07.540Z,72.60
2018-12-13T19:57:35.084Z,72.40
2018-12-13T20:00:02.746Z,72.30
2018-12-13T20:02:30.211Z,71.80
2018-12-13T20:04:57.662Z,71.50
2018-12-13T20:07:25.167Z,71.30
2018-12-13T20:09:52.597Z,69.80
2018-12-13T20:12:20.161Z,70.20
2018-12-13T20:14:47.791Z,71.20
2018-12-13T20:17:15.221Z,70.30
2018-12-13T20:19:42.649Z,70.60
2018-12-13T20:22:10.189Z,71.10
2018-12-13T20:24:37.624Z,71.00
2018-12-13T20:27:05.194Z,70.10
2018-12-13T20:29:32.967Z,69.80
2018-12-13T20:32:00.501Z,70.30
2018-12-13T20:34:27.966Z,70.10
2018-12-13T20:36:55.468Z,69.80
2018-12-13T20:39:23.084Z,69.20
2018-12-13T20:41:50.638Z,70.00
2018-12-13T20:44:18.114Z,70.50
2018-12-13T20:46:45.598Z,69.90
2018-12-13T20:49:13.099Z,70.10
2018-12-13T20:51:40.538Z,70.30
2018-12-13T20:54:08.022Z,70.20
2018-12-13T20:56:35.458Z,70.30
2018-12-13T20:59:02.948Z,70.30
2018-12-13T21:01:30.431Z,70.60
2018-12-13T21:03:57.969Z,69.40
2018-12-13T21:06:25.481Z,69.40
2018-12-13T21:08:53.061Z,69.70
2018-12-13T21:11:20.520Z,69.40
2018-12-13T21:13:47.998Z,69.60
2018-12-13T21:16:15.945Z,69.30
2018-12-13T21:18:43.401Z,68.50
2018-12-13T21:21:10.848Z,68.50
2018-12-13T21:23:38.445Z,68.70
2018-12-13T21:26:05.981Z,68.50
2018-12-13T21:28:33.414Z,68.20
2018-12-13T21:31:01.139Z,67.50
2018-12-13T21:33:28.662Z,68.00
2018-12-13T21:35:56.141Z,68.70
2018-12-13T21:38:23.619Z,68.20
2018-12-13T21:40:51.134Z,68.20
2018-12-13T21:43:18.565Z,68.60
2018-12-13T21:45:46.251Z,68.60
2018-12-13T21:48:13.703Z,68.50
2018-12-13T21:50:41.256Z,67.20
2018-12-13T21:53:08.825Z,67.20
2018-12-13T21:55:36.326Z,67.50
2018-12-13T21:58:03.781Z,66.00
2018-12-13T22:00:31.398Z,66.20
2018-12-13T22:02:58.857Z,65.00
2018-12-13T22:05:26.305Z,65.70
2018-12-13T22:07:53.873Z,66.20
2018-12-13T22:10:21.303Z,66.70
2018-12-13T22:12:48.758Z,67.40
2018-12-13T22:15:16.241Z,68.00
2018-12-13T22:17:43.693Z,67.50
2018-12-13T22:20:11.256Z,67.10
2018-12-13T22:22:38.837Z,66.50
2018-12-13T22:25:07.098Z,69.00
2018-12-13T22:27:34.856Z,69.30
2018-12-13T22:30:02.769Z,71.00
2018-12-13T22:32:30.390Z,69.70
2018-12-13T22:34:57.945Z,68.70
2018-12-13T22:37:25.416Z,67.50
2018-12-13T22:39:52.963Z,67.10
2018-12-13T22:42:20.461Z,65.70
2018-12-13T22:44:48.079Z,65.10
2018-12-13T22:47:15.549Z,65.50
2018-12-13T22:49:42.997Z,65.50
2018-12-13T22:52:10.530Z,65.80
2018-12-13T22:54:37.940Z,65.40
2018-12-13T22:57:05.574Z,65.10
2018-12-13T22:59:33.041Z,65.20
2018-12-13T23:02:00.498Z,66.10
2018-12-13T23:04:28.132Z,66.30
2018-12-13T23:06:55.704Z,66.10
2018-12-13T23:09:23.153Z,66.00
2018-12-13T23:11:50.622Z,66.50
2018-12-13T23:14:18.180Z,67.00
2018-12-13T23:16:45.630Z,65.90
2018-12-13T23:19:13.089Z,66.60
2018-12-13T23:21:40.594Z,66.50
2018-12-13T23:24:08.198Z,66.30
2018-12-13T23:26:35.620Z,66.80
2018-12-13T23:29:03.225Z,66.50
2018-12-13T23:31:30.778Z,67.20
2018-12-13T23:33:58.337Z,66.30
2018-12-13T23:36:25.854Z,65.00
2018-12-13T23:38:53.283Z,65.70
2018-12-13T23:41:20.781Z,66.00
2018-12-13T23:43:48.261Z,65.70
2018-12-13T23:46:15.688Z,66.20
2018-12-13T23:48:43.128Z,66.60
2018-12-13T23:51:10.851Z,67.00
2018-12-13T23:53:38.333Z,67.00
2018-12-13T23:56:05.857Z,66.60
2018-12-13T23:58:33.629Z,66.10
